Time;durP1;ratioP1;P1;durP2;ratioP2;P2;SDS_P1;SDS_P2;PMS_P1;PMS_P2;Temp;Humidity;BMP_temperature;BMP_pressure;BME280_temperature;BME280_humidity;BME280_pressure;Samples;Min_cycle;Max_cycle;Signal;HPM_P1;HPM_P2
2022/02/19 00:01:12;;;;;;;7.15;3.35;;;8.60;99.90;;;;;;5074626;28;20200;-72
2022/02/19 00:03:38;;;;;;;9.35;3.33;;;8.60;99.90;;;;;;5075811;28;20199;-73
2022/02/19 00:06:05;;;;;;;11.90;3.50;;;8.70;99.90;;;;;;5074856;28;20236;-73
2022/02/19 00:08:31;;;;;;;10.88;4.25;;;8.60;99.90;;;;;;5075359;28;20596;-73
2022/02/19 00:10:58;;;;;;;7.03;4.45;;;8.60;99.90;;;;;;5075933;28;20211;-73
2022/02/19 00:13:25;;;;;;;7.55;4.25;;;8.50;99.90;;;;;;5075043;28;20216;-72
2022/02/19 00:15:52;;;;;;;6.68;3.10;;;8.50;99.90;;;;;;5074236;28;20563;-72
2022/02/19 00:18:19;;;;;;;9.73;3.20;;;8.50;99.90;;;;;;5074190;28;20196;-72
2022/02/19 00:20:45;;;;;;;8.07;4.35;;;8.50;99.90;;;;;;5075607;28;20200;-72
2022/02/19 00:23:12;;;;;;;15.50;4.45;;;8.50;99.90;;;;;;5074134;28;20208;-72
2022/02/19 00:25:38;;;;;;;10.38;3.53;;;8.50;99.90;;;;;;5074233;28;20678;-72
2022/02/19 00:28:05;;;;;;;7.63;3.15;;;8.40;99.90;;;;;;5074373;28;20204;-73
2022/02/19 00:30:31;;;;;;;12.40;3.95;;;8.40;99.90;;;;;;5076056;28;20636;-72
2022/02/19 00:32:58;;;;;;;12.40;4.10;;;8.50;99.90;;;;;;5075862;28;20303;-73
2022/02/19 00:35:24;;;;;;;15.38;3.97;;;8.40;99.90;;;;;;5075470;28;20282;-73
2022/02/19 00:37:51;;;;;;;7.07;3.80;;;8.40;99.90;;;;;;5075742;28;20204;-72
2022/02/19 00:40:17;;;;;;;11.35;3.40;;;8.30;99.90;;;;;;5075404;28;20664;-72
2022/02/19 00:42:44;;;;;;;9.20;3.40;;;8.30;99.90;;;;;;5074430;28;20200;-72
2022/02/19 00:45:10;;;;;;;11.35;3.85;;;8.30;99.90;;;;;;5075760;28;20200;-72
2022/02/19 00:47:37;;;;;;;10.07;3.90;;;8.30;99.90;;;;;;5074928;28;20203;-73
2022/02/19 00:50:04;;;;;;;12.75;4.85;;;8.30;99.90;;;;;;5074244;28;20206;-73
2022/02/19 00:52:30;;;;;;;7.90;3.72;;;8.20;99.90;;;;;;5074166;28;20678;-73
2022/02/19 00:54:57;;;;;;;8.63;3.95;;;8.30;99.90;;;;;;5072693;28;20571;-73
2022/02/19 00:57:23;;;;;;;12.60;3.55;;;8.20;99.90;;;;;;5072868;28;20200;-73
2022/02/19 00:59:50;;;;;;;11.13;3.72;;;8.20;99.90;;;;;;5074506;28;20253;-73
2022/02/19 01:02:16;;;;;;;7.90;3.45;;;8.10;99.90;;;;;;5074780;28;20647;-73
2022/02/19 01:04:43;;;;;;;9.15;3.67;;;8.00;99.90;;;;;;5056794;28;20242;-72
2022/02/19 01:07:09;;;;;;;8.93;3.40;;;8.10;99.90;;;;;;5073980;28;20726;-73
2022/02/19 01:09:36;;;;;;;9.00;4.07;;;8.00;99.90;;;;;;5074703;28;20200;-73
2022/02/19 01:12:02;;;;;;;12.90;4.07;;;8.00;99.90;;;;;;5074856;28;20253;-73
2022/02/19 01:14:29;;;;;;;14.05;3.90;;;8.00;99.90;;;;;;5074577;28;20224;-73
2022/02/19 01:16:55;;;;;;;8.93;3.95;;;7.90;99.90;;;;;;5074704;28;20204;-73
2022/02/19 01:19:22;;;;;;;14.98;4.35;;;7.90;99.90;;;;;;5073229;28;20192;-72
2022/02/19 01:21:48;;;;;;;17.48;4.03;;;7.90;99.90;;;;;;5073241;28;20207;-72
2022/02/19 01:24:15;;;;;;;13.45;4.15;;;7.90;99.90;;;;;;5073383;28;20227;-73
2022/02/19 01:26:41;;;;;;;5.65;3.65;;;7.90;99.90;;;;;;5073391;28;20651;-73
2022/02/19 01:29:08;;;;;;;7.40;4.00;;;7.80;99.90;;;;;;5073264;28;20199;-73
2022/02/19 01:31:34;;;;;;;11.80;4.68;;;7.90;99.90;;;;;;5073407;28;20571;-73
2022/02/19 01:34:01;;;;;;;9.27;3.95;;;7.90;99.90;;;;;;5071963;28;20219;-73
2022/02/19 01:36:27;;;;;;;18.08;4.93;;;7.90;99.90;;;;;;5073164;28;20195;-73
2022/02/19 01:38:54;;;;;;;10.13;3.50;;;7.90;99.90;;;;;;5074127;28;20195;-73
2022/02/19 01:41:20;;;;;;;8.85;4.30;;;7.90;99.90;;;;;;5072639;28;20208;-73
2022/02/19 01:43:48;;;;;;;10.38;4.10;;;7.80;99.90;;;;;;5073696;28;20200;-73
2022/02/19 01:46:14;;;;;;;13.05;4.45;;;7.80;99.90;;;;;;5074748;28;20204;-73
2022/02/19 01:48:41;;;;;;;10.63;3.72;;;7.70;99.90;;;;;;5074581;28;20196;-73
2022/02/19 01:51:08;;;;;;;15.48;5.05;;;7.70;99.90;;;;;;5074510;28;20208;-73
2022/02/19 01:53:34;;;;;;;8.52;3.72;;;7.80;99.90;;;;;;5075068;28;20196;-73
2022/02/19 01:56:01;;;;;;;11.68;4.93;;;7.70;99.90;;;;;;5074756;28;20204;-73
2022/02/19 01:58:28;;;;;;;14.02;5.80;;;7.60;99.90;;;;;;5072938;28;20207;-73
2022/02/19 02:00:54;;;;;;;9.48;4.85;;;7.60;99.90;;;;;;5072906;28;20200;-73
2022/02/19 02:03:21;;;;;;;11.85;4.00;;;7.70;99.90;;;;;;5073199;28;20204;-73
2022/02/19 02:05:47;;;;;;;6.15;3.50;;;7.60;99.90;;;;;;5074336;28;20236;-73
2022/02/19 02:08:14;;;;;;;7.90;3.83;;;7.50;99.90;;;;;;5073039;28;20196;-73
2022/02/19 02:10:41;;;;;;;7.10;3.20;;;7.40;99.90;;;;;;5074245;28;20212;-73
2022/02/19 02:13:07;;;;;;;13.73;4.15;;;7.50;99.90;;;;;;5072663;28;20219;-73
2022/02/19 02:15:34;;;;;;;13.30;4.43;;;7.40;99.90;;;;;;5073733;28;20221;-72
2022/02/19 02:18:01;;;;;;;9.77;3.67;;;7.40;99.90;;;;;;5073233;28;20204;-72
2022/02/19 02:20:28;;;;;;;11.73;3.70;;;7.40;99.90;;;;;;5073173;28;20567;-72
2022/02/19 02:22:55;;;;;;;11.60;4.20;;;7.30;99.90;;;;;;5073075;28;20204;-73
2022/02/19 02:25:28;;;;;;;10.68;3.33;;;7.30;99.90;;;;;;5073315;28;20651;-73
2022/02/19 02:27:55;;;;;;;8.23;4.68;;;7.30;99.90;;;;;;5076947;28;20203;-73
2022/02/19 02:30:22;;;;;;;9.85;4.18;;;7.30;99.90;;;;;;5075417;28;20200;-73
2022/02/19 02:32:50;;;;;;;13.90;4.70;;;7.20;99.90;;;;;;5076580;28;20207;-73
2022/02/19 02:35:17;;;;;;;8.80;3.28;;;7.20;99.90;;;;;;5077926;28;20223;-73
2022/02/19 02:37:44;;;;;;;13.82;4.07;;;7.10;99.90;;;;;;5076774;28;20204;-73
2022/02/19 02:40:11;;;;;;;20.25;4.40;;;7.10;99.90;;;;;;5076837;28;20200;-73
2022/02/19 02:42:37;;;;;;;6.32;3.47;;;7.10;99.90;;;;;;5076506;28;20237;-73
2022/02/19 02:45:05;;;;;;;11.38;3.67;;;7.00;99.90;;;;;;5076454;28;20204;-73
2022/02/19 02:47:33;;;;;;;8.25;3.35;;;7.00;99.90;;;;;;5076419;28;20663;-74
2022/02/19 02:49:59;;;;;;;9.75;3.55;;;7.00;99.90;;;;;;5076590;28;20671;-73
2022/02/19 02:52:26;;;;;;;7.65;3.80;;;7.00;99.90;;;;;;5075764;28;20233;-74
2022/02/19 02:54:52;;;;;;;6.20;3.00;;;7.00;99.90;;;;;;5076713;28;20257;-73
2022/02/19 02:57:19;;;;;;;10.27;4.55;;;6.90;99.90;;;;;;5076605;28;20199;-72
2022/02/19 02:59:45;;;;;;;12.65;3.85;;;7.00;99.90;;;;;;5076967;28;20204;-72
2022/02/19 03:02:11;;;;;;;7.95;3.67;;;6.90;99.90;;;;;;5076860;28;20200;-72
2022/02/19 03:04:38;;;;;;;5.50;3.95;;;6.80;99.90;;;;;;5074370;28;20228;-71
2022/02/19 03:07:04;;;;;;;8.55;3.90;;;6.80;99.90;;;;;;5075458;28;20228;-72
2022/02/19 03:09:31;;;;;;;9.98;3.60;;;6.90;99.90;;;;;;5076723;28;20208;-73
2022/02/19 03:11:58;;;;;;;12.85;3.45;;;6.80;99.90;;;;;;5077342;28;20208;-72
2022/02/19 03:14:24;;;;;;;6.05;3.20;;;6.80;99.90;;;;;;5075693;28;20211;-72
2022/02/19 03:16:51;;;;;;;11.68;4.57;;;6.80;99.90;;;;;;5075734;28;20200;-73
2022/02/19 03:19:17;;;;;;;13.00;4.15;;;6.70;99.90;;;;;;5076704;28;20207;-73
2022/02/19 03:21:43;;;;;;;9.50;3.70;;;6.80;99.90;;;;;;5076751;28;20208;-73
2022/02/19 03:24:10;;;;;;;11.52;3.53;;;6.80;99.90;;;;;;5077155;28;20199;-73
2022/02/19 03:26:37;;;;;;;8.93;4.15;;;6.90;99.90;;;;;;5077051;28;20210;-72
2022/02/19 03:29:03;;;;;;;5.82;3.10;;;6.90;99.90;;;;;;5076722;28;20208;-72
2022/02/19 03:31:30;;;;;;;12.13;4.28;;;6.90;99.90;;;;;;5076835;28;20203;-72
2022/02/19 03:33:56;;;;;;;10.68;3.85;;;6.80;99.90;;;;;;5075329;28;20204;-72
2022/02/19 03:36:23;;;;;;;8.15;3.88;;;6.80;99.90;;;;;;5075166;28;20199;-72
2022/02/19 03:38:49;;;;;;;5.22;3.40;;;6.80;99.90;;;;;;5075191;28;20204;-72
2022/02/19 03:41:16;;;;;;;12.07;4.40;;;6.80;99.90;;;;;;5074884;28;20199;-72
2022/02/19 03:43:42;;;;;;;13.38;4.97;;;6.80;99.90;;;;;;5075738;28;20192;-72
2022/02/19 03:46:09;;;;;;;5.28;3.60;;;6.70;99.90;;;;;;5074540;28;20573;-73
2022/02/19 03:48:35;;;;;;;9.38;3.63;;;6.70;99.90;;;;;;5075470;28;20655;-73
2022/02/19 03:51:04;;;;;;;7.43;3.03;;;6.70;99.90;;;;;;5076706;28;20561;-73
2022/02/19 03:53:30;;;;;;;15.50;6.13;;;6.70;99.90;;;;;;5076762;28;20211;-73
2022/02/19 03:55:57;;;;;;;24.27;15.25;;;6.70;99.90;;;;;;5074672;28;20223;-73
2022/02/19 03:58:23;;;;;;;15.77;8.48;;;6.70;99.90;;;;;;5075183;28;20192;-72
2022/02/19 04:00:50;;;;;;;14.38;4.50;;;6.60;99.90;;;;;;5075928;28;20655;-72
2022/02/19 04:03:16;;;;;;;15.38;9.18;;;6.60;99.90;;;;;;5076012;28;20204;-72
2022/02/19 04:05:43;;;;;;;12.35;3.30;;;6.50;99.90;;;;;;5075539;28;20239;-72
2022/02/19 04:08:09;;;;;;;11.07;3.60;;;6.50;99.90;;;;;;5075895;28;20200;-72
2022/02/19 04:10:37;;;;;;;6.05;2.75;;;6.50;99.90;;;;;;5075795;28;20200;-72
2022/02/19 04:13:04;;;;;;;6.35;3.70;;;6.50;99.90;;;;;;5075614;28;20204;-72
2022/02/19 04:15:31;;;;;;;8.32;3.72;;;6.50;99.90;;;;;;5075225;28;20220;-72
2022/02/19 04:17:58;;;;;;;11.95;4.00;;;6.50;99.90;;;;;;5075335;28;20199;-72
2022/02/19 04:20:25;;;;;;;16.30;4.72;;;6.40;99.90;;;;;;5075476;28;20196;-71
2022/02/19 04:22:52;;;;;;;7.90;4.13;;;6.30;99.90;;;;;;5072815;28;20568;-72
2022/02/19 04:25:19;;;;;;;7.85;3.25;;;6.30;99.90;;;;;;5074498;28;20206;-72
2022/02/19 04:27:45;;;;;;;6.68;3.80;;;6.30;99.90;;;;;;5074335;28;20204;-72
2022/02/19 04:30:11;;;;;;;8.90;3.55;;;6.30;99.90;;;;;;5074428;28;20702;-72
2022/02/19 04:32:38;;;;;;;7.30;3.90;;;6.30;99.90;;;;;;5074826;28;20222;-72
2022/02/19 04:35:05;;;;;;;13.32;4.80;;;6.30;99.90;;;;;;5074876;28;20223;-72
2022/02/19 04:37:31;;;;;;;12.52;4.32;;;6.30;99.90;;;;;;5074982;28;20210;-72
2022/02/19 04:39:57;;;;;;;10.02;3.72;;;6.30;99.90;;;;;;5075112;28;20195;-72
2022/02/19 04:42:25;;;;;;;16.77;7.53;;;6.30;99.90;;;;;;5075157;28;20234;-72
2022/02/19 04:44:51;;;;;;;16.38;9.02;;;6.30;99.90;;;;;;5073520;28;20214;-72
2022/02/19 04:47:17;;;;;;;19.20;10.13;;;6.30;99.90;;;;;;5075289;28;20203;-73
2022/02/19 04:49:43;;;;;;;11.45;5.50;;;6.20;99.90;;;;;;5074537;28;20214;-73
2022/02/19 04:52:10;;;;;;;13.65;6.32;;;6.20;99.90;;;;;;5074880;28;20196;-73
2022/02/19 04:54:36;;;;;;;7.05;4.43;;;6.20;99.90;;;;;;5074505;28;20288;-73
2022/02/19 04:57:02;;;;;;;9.73;3.45;;;6.20;99.90;;;;;;5074595;28;20188;-73
2022/02/19 04:59:29;;;;;;;12.88;3.78;;;6.20;99.90;;;;;;5073234;28;20192;-73
2022/02/19 05:01:55;;;;;;;10.23;3.53;;;6.20;99.90;;;;;;5073740;28;20732;-73
2022/02/19 05:04:21;;;;;;;5.30;2.85;;;6.20;99.90;;;;;;5073167;28;20231;-73
2022/02/19 05:06:48;;;;;;;8.48;3.63;;;6.20;99.90;;;;;;5074799;28;20220;-73
2022/02/19 05:09:16;;;;;;;10.20;3.67;;;6.20;99.90;;;;;;5074777;28;20200;-73
2022/02/19 05:11:42;;;;;;;7.25;3.03;;;6.10;99.90;;;;;;5074964;28;20192;-73
2022/02/19 05:14:08;;;;;;;13.43;3.72;;;6.10;99.90;;;;;;5075264;28;20196;-73
2022/02/19 05:16:35;;;;;;;13.02;3.83;;;6.20;99.90;;;;;;5074836;28;20566;-73
2022/02/19 05:19:01;;;;;;;8.40;3.03;;;6.10;99.90;;;;;;5074879;28;20196;-72
2022/02/19 05:21:27;;;;;;;5.55;3.45;;;6.20;99.90;;;;;;5074917;28;20230;-73
2022/02/19 05:23:55;;;;;;;6.88;3.47;;;6.20;99.90;;;;;;5073270;28;20202;-72
2022/02/19 05:26:21;;;;;;;11.15;4.95;;;6.20;99.90;;;;;;5073784;28;20206;-73
2022/02/19 05:28:47;;;;;;;14.38;4.18;;;6.20;99.90;;;;;;5074614;28;20567;-73
2022/02/19 05:31:13;;;;;;;12.20;5.95;;;6.10;99.90;;;;;;5072250;28;20192;-72
2022/02/19 05:33:40;;;;;;;9.70;4.07;;;6.10;99.90;;;;;;5074805;28;20210;-72
2022/02/19 05:36:06;;;;;;;7.78;3.13;;;6.10;99.90;;;;;;5074869;28;20226;-72
2022/02/19 05:38:32;;;;;;;11.63;3.58;;;6.10;99.90;;;;;;5074417;28;20211;-72
2022/02/19 05:40:59;;;;;;;9.95;3.45;;;6.00;99.90;;;;;;5073655;28;20218;-72
2022/02/19 05:43:25;;;;;;;8.52;3.88;;;6.00;99.90;;;;;;5074555;28;20192;-72
2022/02/19 05:45:51;;;;;;;10.07;3.15;;;6.00;99.90;;;;;;5074641;28;20216;-72
2022/02/19 05:48:18;;;;;;;9.70;4.22;;;6.00;99.90;;;;;;5074686;28;20208;-73
2022/02/19 05:50:45;;;;;;;11.43;5.35;;;5.90;99.90;;;;;;5073530;28;20196;-72
2022/02/19 05:53:13;;;;;;;10.65;3.72;;;5.90;99.90;;;;;;5073365;28;20208;-72
2022/02/19 05:55:39;;;;;;;10.00;2.67;;;5.90;99.90;;;;;;5073113;28;20690;-73
2022/02/19 05:58:06;;;;;;;8.20;2.30;;;5.90;99.90;;;;;;5073087;28;20196;-73
2022/02/19 06:00:33;;;;;;;12.35;3.15;;;5.80;99.90;;;;;;5077027;28;20192;-73
2022/02/19 06:02:59;;;;;;;7.18;2.53;;;5.80;99.90;;;;;;5076432;28;20728;-73
2022/02/19 06:05:25;;;;;;;7.50;2.40;;;5.70;99.90;;;;;;5077228;28;20228;-73
2022/02/19 06:07:52;;;;;;;13.23;5.68;;;5.70;99.90;;;;;;5078124;28;20214;-73
2022/02/19 06:10:18;;;;;;;7.15;3.53;;;5.60;99.90;;;;;;5077779;28;20222;-73
2022/02/19 06:12:44;;;;;;;5.32;2.95;;;5.60;99.90;;;;;;5077982;28;20234;-73
2022/02/19 06:15:11;;;;;;;7.25;2.95;;;5.60;99.90;;;;;;5077987;28;20227;-73
2022/02/19 06:17:37;;;;;;;4.05;3.28;;;5.60;99.90;;;;;;5077664;28;20291;-73
2022/02/19 06:20:04;;;;;;;7.07;2.63;;;5.60;99.90;;;;;;5076867;28;20211;-73
2022/02/19 06:22:31;;;;;;;11.98;3.17;;;5.60;99.90;;;;;;5077327;28;20549;-73
2022/02/19 06:24:57;;;;;;;6.35;3.03;;;5.50;99.90;;;;;;5077739;28;20200;-73
2022/02/19 06:27:24;;;;;;;12.40;3.47;;;5.50;99.90;;;;;;5077577;28;20588;-73
2022/02/19 06:29:50;;;;;;;9.48;3.45;;;5.40;99.90;;;;;;5077561;28;20203;-73
2022/02/19 06:32:17;;;;;;;8.27;3.80;;;5.50;99.90;;;;;;5077251;28;20653;-72
2022/02/19 06:34:43;;;;;;;14.05;3.65;;;5.40;99.90;;;;;;5077322;28;20224;-73
2022/02/19 06:37:10;;;;;;;13.70;3.13;;;5.50;99.90;;;;;;5077605;28;20203;-73
2022/02/19 06:39:36;;;;;;;10.65;3.05;;;5.50;99.90;;;;;;5077529;28;20196;-73
2022/02/19 06:42:03;;;;;;;8.18;2.90;;;5.50;99.90;;;;;;5076753;28;20611;-73
2022/02/19 06:44:29;;;;;;;12.70;3.08;;;5.50;99.90;;;;;;5077235;28;20207;-73
2022/02/19 06:46:55;;;;;;;7.97;2.47;;;5.50;99.90;;;;;;5077313;28;20216;-73
2022/02/19 06:49:22;;;;;;;15.07;3.05;;;5.40;99.90;;;;;;5077521;28;20616;-73
2022/02/19 06:51:48;;;;;;;7.40;2.90;;;5.40;99.90;;;;;;5077939;28;20204;-73
2022/02/19 06:54:15;;;;;;;7.43;2.65;;;5.50;99.90;;;;;;5076277;28;20196;-73
2022/02/19 06:56:41;;;;;;;8.77;2.78;;;5.40;99.90;;;;;;5076690;28;20223;-72
2022/02/19 06:59:10;;;;;;;6.68;2.50;;;5.50;99.90;;;;;;5075892;28;20196;-72
2022/02/19 07:01:36;;;;;;;10.15;2.90;;;5.40;99.90;;;;;;5077000;28;20203;-72
2022/02/19 07:04:03;;;;;;;6.57;2.92;;;5.40;99.90;;;;;;5077124;28;20222;-72
2022/02/19 07:06:29;;;;;;;8.48;2.58;;;5.50;99.90;;;;;;5076848;28;20227;-71
2022/02/19 07:08:56;;;;;;;8.73;2.75;;;5.50;99.90;;;;;;5076957;28;20203;-72
2022/02/19 07:11:24;;;;;;;5.38;2.08;;;5.50;99.90;;;;;;5076386;28;20235;-72
2022/02/19 07:13:50;;;;;;;4.72;2.45;;;5.50;99.90;;;;;;5075767;28;20223;-72
2022/02/19 07:16:16;;;;;;;11.35;2.85;;;5.50;99.90;;;;;;5075772;28;20710;-72
2022/02/19 07:18:43;;;;;;;6.22;2.42;;;5.50;99.90;;;;;;5057789;28;20203;-72
2022/02/19 07:21:09;;;;;;;5.63;2.30;;;5.50;99.90;;;;;;5075881;28;20196;-72
2022/02/19 07:23:36;;;;;;;9.57;2.75;;;5.60;99.90;;;;;;5076081;28;20204;-72
2022/02/19 07:26:02;;;;;;;8.43;2.28;;;5.60;99.90;;;;;;5076967;28;20596;-72
2022/02/19 07:28:28;;;;;;;8.75;2.33;;;5.60;99.90;;;;;;5075390;28;20211;-72
2022/02/19 07:30:55;;;;;;;6.05;2.22;;;5.60;99.90;;;;;;5075980;28;20553;-72
2022/02/19 07:33:21;;;;;;;7.60;2.80;;;5.60;99.90;;;;;;5075245;28;20208;-72
2022/02/19 07:35:48;;;;;;;8.10;2.75;;;5.70;99.90;;;;;;5075358;28;20220;-72
2022/02/19 07:38:15;;;;;;;9.10;3.13;;;5.70;99.90;;;;;;5075656;28;20207;-72
2022/02/19 07:40:41;;;;;;;4.13;2.40;;;5.70;99.90;;;;;;5075378;28;20196;-72
2022/02/19 07:43:08;;;;;;;5.80;2.50;;;5.80;99.90;;;;;;5075213;28;20195;-73
2022/02/19 07:45:34;;;;;;;11.15;2.90;;;5.80;99.90;;;;;;5075639;28;20601;-73
2022/02/19 07:48:01;;;;;;;7.40;2.60;;;5.80;99.90;;;;;;5075704;28;20200;-73
2022/02/19 07:58:42;;;;;;;7.68;2.85;;;5.90;99.90;;;;;;5074411;28;20645;-72
2022/02/19 08:01:09;;;;;;;10.05;3.40;;;5.90;99.90;;;;;;5075843;28;20196;-72
2022/02/19 08:03:35;;;;;;;7.43;3.63;;;5.90;99.90;;;;;;5075738;28;20200;-71
2022/02/19 08:06:04;;;;;;;8.10;2.88;;;6.10;99.90;;;;;;5075651;28;20250;-72
2022/02/19 08:08:33;;;;;;;9.23;3.50;;;6.00;99.90;;;;;;5075954;28;20215;-72
2022/02/19 08:11:00;;;;;;;6.90;2.70;;;6.00;99.90;;;;;;5075467;28;20203;-72
2022/02/19 08:13:26;;;;;;;10.60;2.60;;;6.10;99.90;;;;;;5075493;28;20561;-72
2022/02/19 08:15:53;;;;;;;6.55;3.20;;;6.10;99.90;;;;;;5075228;28;20686;-72
2022/02/19 08:18:20;;;;;;;6.90;3.05;;;6.20;99.90;;;;;;5075562;28;20200;-72
2022/02/19 08:20:48;;;;;;;15.00;2.70;;;6.20;99.90;;;;;;5075453;28;20200;-72
2022/02/19 08:23:17;;;;;;;13.10;2.38;;;6.30;99.90;;;;;;5074063;28;20200;-72
2022/02/19 08:25:44;;;;;;;9.25;2.85;;;6.30;99.90;;;;;;5073701;28;20207;-72
2022/02/19 08:28:12;;;;;;;6.35;2.65;;;6.30;99.90;;;;;;5075279;28;20223;-71
2022/02/19 08:30:40;;;;;;;10.93;2.72;;;6.20;99.90;;;;;;5075220;28;20204;-71
2022/02/19 08:33:08;;;;;;;6.38;2.97;;;6.20;99.90;;;;;;5074473;28;20208;-72
2022/02/19 08:35:36;;;;;;;7.97;2.83;;;6.30;99.90;;;;;;5074751;28;20281;-72
2022/02/19 08:38:03;;;;;;;7.75;2.35;;;6.30;99.90;;;;;;5074300;28;20204;-72
2022/02/19 08:40:30;;;;;;;7.15;2.92;;;6.40;99.90;;;;;;5057113;28;20196;-71
2022/02/19 08:42:58;;;;;;;8.15;2.42;;;6.30;99.90;;;;;;5075298;28;20195;-74
2022/02/19 08:45:25;;;;;;;9.27;2.63;;;6.40;99.90;;;;;;5074420;28;20204;-72
2022/02/19 08:48:01;;;;;;;7.25;4.13;;;6.60;99.90;;;;;;5074918;28;20211;-73
2022/02/19 08:50:29;;;;;;;11.00;3.53;;;6.50;99.90;;;;;;5074273;28;20204;-72
2022/02/19 08:52:56;;;;;;;10.07;2.30;;;6.60;99.90;;;;;;5075078;28;20211;-73
2022/02/19 08:55:23;;;;;;;6.22;2.60;;;6.70;99.90;;;;;;5074693;28;20587;-72
2022/02/19 08:57:50;;;;;;;9.23;2.70;;;6.60;99.90;;;;;;5074154;28;20250;-74
2022/02/19 09:00:17;;;;;;;9.57;2.83;;;6.70;99.90;;;;;;5074981;28;20202;-71
2022/02/19 09:02:44;;;;;;;9.98;3.10;;;6.80;99.90;;;;;;5074345;28;20715;-73
2022/02/19 09:05:14;;;;;;;4.80;2.85;;;6.70;99.90;;;;;;5074011;28;20231;-73
2022/02/19 09:07:41;;;;;;;14.90;4.07;;;6.80;99.90;;;;;;5076072;28;20224;-72
2022/02/19 09:10:11;;;;;;;7.65;3.38;;;6.70;99.90;;;;;;5075686;28;20557;-71
2022/02/19 09:12:43;;;;;;;8.38;3.45;;;6.70;99.90;;;;;;5074065;28;20211;-71
2022/02/19 09:15:10;;;;;;;9.93;2.83;;;6.70;99.90;;;;;;5073469;28;20200;-72
2022/02/19 09:17:36;;;;;;;12.05;3.65;;;6.60;99.90;;;;;;5072840;28;20200;-72
2022/02/19 09:20:03;;;;;;;6.60;3.25;;;6.70;99.90;;;;;;5072399;28;20548;-72
2022/02/19 09:22:30;;;;;;;7.93;3.10;;;6.80;99.90;;;;;;5056512;28;20196;-72
2022/02/19 09:24:56;;;;;;;6.40;2.90;;;6.80;99.90;;;;;;5073178;28;20568;-71
2022/02/19 09:27:23;;;;;;;12.93;3.33;;;6.80;99.90;;;;;;5074845;28;20208;-71
2022/02/19 09:29:50;;;;;;;8.13;3.50;;;6.70;99.90;;;;;;5058082;28;20609;-72
2022/02/19 09:32:16;;;;;;;7.78;4.30;;;7.00;99.90;;;;;;5075855;28;20306;-71
2022/02/19 09:34:43;;;;;;;11.80;4.15;;;7.00;99.90;;;;;;5058034;28;20211;-71
2022/02/19 09:37:10;;;;;;;11.20;3.50;;;7.00;99.90;;;;;;5077016;28;20215;-70
2022/02/19 09:39:37;;;;;;;7.75;3.95;;;7.20;99.90;;;;;;5078237;28;20222;-71
2022/02/19 09:42:04;;;;;;;9.98;3.08;;;7.40;99.90;;;;;;5078828;28;20200;-70
2022/02/19 09:44:30;;;;;;;7.38;2.95;;;7.10;99.90;;;;;;5078864;28;20214;-71
2022/02/19 09:46:57;;;;;;;4.13;2.50;;;7.40;99.90;;;;;;5078591;28;20265;-71
2022/02/19 09:49:25;;;;;;;8.80;3.97;;;7.20;99.90;;;;;;5077420;28;20208;-72
2022/02/19 09:51:53;;;;;;;7.75;3.10;;;6.90;99.90;;;;;;5061112;28;20581;-72
2022/02/19 09:54:19;;;;;;;10.25;3.55;;;7.00;99.90;;;;;;5077375;28;20214;-71
2022/02/19 09:56:46;;;;;;;4.32;3.08;;;7.00;99.90;;;;;;5078392;28;20220;-71
2022/02/19 09:59:12;;;;;;;13.60;4.57;;;7.20;99.90;;;;;;5078021;28;20538;-72
2022/02/19 10:01:41;;;;;;;8.13;3.40;;;7.20;99.90;;;;;;5076141;28;20196;-71
2022/02/19 10:04:08;;;;;;;7.93;4.30;;;7.30;99.90;;;;;;5078085;28;20203;-71
2022/02/19 10:06:39;;;;;;;9.18;3.00;;;7.20;99.90;;;;;;5075804;28;20230;-71
2022/02/19 10:09:16;;;;;;;8.18;3.40;;;7.10;99.90;;;;;;5078539;28;20565;-72
2022/02/19 10:11:44;;;;;;;6.53;3.20;;;7.30;99.90;;;;;;5078877;28;20211;-72
2022/02/19 10:14:46;;;;;;;5.38;3.10;;;7.30;99.90;;;;;;5078571;28;20207;-71
2022/02/19 10:17:24;;;;;;;10.70;4.07;;;7.30;99.90;;;;;;5076037;28;20303;-71
2022/02/19 10:19:55;;;;;;;3.10;2.72;;;7.40;99.90;;;;;;5077519;28;20199;-71
2022/02/19 10:22:23;;;;;;;4.60;3.72;;;7.40;99.90;;;;;;5077054;28;20261;-71
2022/02/19 10:25:03;;;;;;;7.60;3.90;;;7.50;99.90;;;;;;5076846;28;20715;-71
2022/02/19 10:28:04;;;;;;;15.02;5.75;;;7.60;99.90;;;;;;5078001;28;20188;-73
2022/02/19 10:30:31;;;;;;;9.13;4.32;;;7.40;99.90;;;;;;5080950;28;20332;-71
2022/02/19 10:33:06;;;;;;;13.93;3.60;;;7.30;99.90;;;;;;5076211;28;20250;-71
2022/02/19 10:35:37;;;;;;;4.68;3.22;;;7.10;99.90;;;;;;5075847;28;20236;-74
2022/02/19 10:38:07;;;;;;;8.02;3.15;;;7.40;99.90;;;;;;5077126;28;20199;-71
2022/02/19 10:40:33;;;;;;;6.82;3.65;;;7.50;99.90;;;;;;5078128;28;20600;-71
2022/02/19 10:43:05;;;;;;;11.25;3.95;;;7.60;99.90;;;;;;5077705;28;20196;-72
2022/02/19 10:45:33;;;;;;;14.45;3.97;;;7.80;99.90;;;;;;5075392;28;20200;-71
2022/02/19 10:48:17;;;;;;;10.07;4.13;;;7.90;99.90;;;;;;5077887;28;20221;-71
2022/02/19 10:50:47;;;;;;;7.20;3.70;;;8.20;99.90;;;;;;5060793;28;20325;-72
2022/02/19 10:53:21;;;;;;;8.52;4.22;;;8.10;99.90;;;;;;5077311;28;20180;-71
2022/02/19 10:55:48;;;;;;;10.90;4.95;;;8.40;99.90;;;;;;5076449;28;20226;-72
2022/02/19 10:58:15;;;;;;;4.53;3.50;;;8.60;99.90;;;;;;5075503;28;20192;-70
2022/02/19 11:00:44;;;;;;;4.63;3.50;;;8.80;99.90;;;;;;5076476;28;20199;-72
2022/02/19 11:03:11;;;;;;;11.15;3.65;;;8.80;99.90;;;;;;5077964;28;20198;-72
2022/02/19 11:05:39;;;;;;;8.45;3.95;;;8.30;99.90;;;;;;5076417;28;20232;-71
2022/02/19 11:08:05;;;;;;;8.18;3.17;;;8.00;99.90;;;;;;5076956;28;20204;-71
2022/02/19 11:10:33;;;;;;;14.45;4.50;;;8.30;99.90;;;;;;5075668;28;20191;-71
2022/02/19 11:13:01;;;;;;;6.38;4.28;;;8.10;99.90;;;;;;5076740;28;20226;-71
2022/02/19 11:15:27;;;;;;;7.28;3.10;;;8.20;99.90;;;;;;5075349;28;20246;-70
2022/02/19 11:17:55;;;;;;;10.77;3.65;;;8.40;99.90;;;;;;5076284;28;20229;-71
2022/02/19 11:20:24;;;;;;;8.77;3.75;;;8.30;99.90;;;;;;5076961;28;20218;-71
2022/02/19 11:22:53;;;;;;;10.65;4.00;;;8.00;99.90;;;;;;5076310;28;20218;-71
2022/02/19 11:25:21;;;;;;;4.65;3.83;;;7.90;99.90;;;;;;5076913;28;20192;-71
2022/02/19 11:28:12;;;;;;;4.82;4.00;;;7.70;99.90;;;;;;5074409;28;20196;-72
2022/02/19 11:30:46;;;;;;;11.60;3.72;;;8.20;99.90;;;;;;5076002;28;20675;-71
2022/02/19 11:33:14;;;;;;;7.18;4.05;;;8.10;99.90;;;;;;5075546;28;20187;-71
2022/02/19 11:35:42;;;;;;;6.32;3.60;;;8.00;99.90;;;;;;5075048;28;20196;-71
2022/02/19 11:38:27;;;;;;;7.50;3.25;;;8.00;99.90;;;;;;5074086;28;20199;-72
2022/02/19 11:40:56;;;;;;;6.55;3.75;;;7.80;99.90;;;;;;5074632;28;20631;-72
2022/02/19 11:43:47;;;;;;;6.72;4.05;;;7.70;99.90;;;;;;5075008;28;20206;-72
2022/02/19 11:46:13;;;;;;;10.27;3.80;;;7.60;99.90;;;;;;5075392;28;20212;-71
2022/02/19 11:48:45;;;;;;;11.02;3.58;;;7.70;99.90;;;;;;5075350;28;20207;-71
2022/02/19 11:51:21;;;;;;;5.90;3.22;;;7.80;99.90;;;;;;5075210;28;20211;-72
2022/02/19 11:53:55;;;;;;;4.72;3.00;;;7.60;99.90;;;;;;5073553;28;20208;-71
2022/02/19 11:56:30;;;;;;;8.95;4.13;;;7.60;99.90;;;;;;5075117;28;20679;-72
2022/02/19 11:58:58;;;;;;;7.53;3.13;;;7.80;99.90;;;;;;5074516;28;20195;-72
2022/02/19 12:01:24;;;;;;;10.63;3.78;;;7.90;99.90;;;;;;5075582;28;20208;-72
2022/02/19 12:04:10;;;;;;;8.02;3.78;;;8.00;99.90;;;;;;5076050;28;20196;-71
2022/02/19 12:06:41;;;;;;;8.38;3.92;;;7.80;99.90;;;;;;5075681;28;20226;-72
2022/02/19 12:09:10;;;;;;;4.00;3.58;;;8.30;99.90;;;;;;5076138;28;20188;-72
2022/02/19 12:11:55;;;;;;;6.38;4.20;;;8.60;99.90;;;;;;5075888;28;20716;-71
2022/02/19 12:14:40;;;;;;;10.85;4.65;;;8.70;99.90;;;;;;5075876;28;20215;-71
2022/02/19 12:17:11;;;;;;;4.80;4.40;;;9.10;99.90;;;;;;5074818;28;20265;-75
2022/02/19 12:19:56;;;;;;;6.15;4.88;;;9.10;99.90;;;;;;5075470;28;20200;-71
2022/02/19 12:22:50;;;;;;;4.22;3.90;;;9.80;99.90;;;;;;5074596;28;20211;-71
2022/02/19 12:25:17;;;;;;;9.73;4.20;;;9.80;99.90;;;;;;5073565;28;20686;-72
2022/02/19 12:27:44;;;;;;;7.10;4.05;;;9.20;99.90;;;;;;5073332;28;20196;-71
2022/02/19 12:30:24;;;;;;;8.18;4.15;;;9.20;99.90;;;;;;5074301;28;20199;-71
2022/02/19 12:32:58;;;;;;;10.70;4.30;;;9.10;99.90;;;;;;5074341;28;20192;-71
2022/02/19 12:35:38;;;;;;;14.80;4.70;;;9.20;99.90;;;;;;5074160;28;20644;-72
2022/02/19 12:38:06;;;;;;;7.10;4.45;;;9.50;99.90;;;;;;5074599;28;20596;-71
2022/02/19 12:40:33;;;;;;;12.85;4.63;;;9.80;99.90;;;;;;5073701;28;20212;-71
2022/02/19 12:43:00;;;;;;;5.97;5.50;;;9.90;99.90;;;;;;5074909;28;20593;-72
2022/02/19 12:45:26;;;;;;;5.72;4.90;;;10.30;99.90;;;;;;5074753;28;20604;-71
2022/02/19 12:47:53;;;;;;;7.25;4.35;;;10.40;99.90;;;;;;5074028;28;20203;-71
2022/02/19 12:50:20;;;;;;;4.53;4.03;;;10.00;99.90;;;;;;5073180;28;20204;-71
2022/02/19 12:52:51;;;;;;;6.00;5.30;;;9.20;99.90;;;;;;5074337;28;20218;-72
2022/02/19 12:55:20;;;;;;;9.93;5.80;;;10.20;99.90;;;;;;5074454;28;20203;-72
2022/02/19 12:57:58;;;;;;;7.13;5.43;;;10.30;99.90;;;;;;5074122;28;20216;-72
2022/02/19 13:00:25;;;;;;;6.43;5.43;;;10.60;99.90;;;;;;5074441;28;20188;-71
2022/02/19 13:02:56;;;;;;;6.10;5.60;;;10.60;99.90;;;;;;5073948;28;20598;-71
2022/02/19 13:05:22;;;;;;;8.57;6.00;;;10.90;99.90;;;;;;5073506;28;20653;-72